createdAt,value
2022-08-28T00:00:28.779Z,10.38
2022-08-28T00:02:56.062Z,17.45
2022-08-28T00:05:25.091Z,13.85
2022-08-28T00:07:51.455Z,11.15
2022-08-28T00:10:20.066Z,14.73
2022-08-28T00:12:49.561Z,10.15
2022-08-28T00:15:21.629Z,12.48
2022-08-28T00:17:48.413Z,13.38
2022-08-28T00:20:18.166Z,11.95
2022-08-28T00:22:45.138Z,12.02
2022-08-28T00:25:13.586Z,15.05
2022-08-28T00:27:52.173Z,17.35
2022-08-28T00:30:30.801Z,14.90
2022-08-28T00:33:10.648Z,14.70
2022-08-28T00:35:40.189Z,18.02
2022-08-28T00:38:11.595Z,14.57
2022-08-28T00:40:38.506Z,14.23
2022-08-28T00:43:07.707Z,11.93
2022-08-28T00:45:39.264Z,12.02
2022-08-28T00:48:05.698Z,13.40
2022-08-28T00:50:52.425Z,14.52
2022-08-28T00:53:19.712Z,17.02
2022-08-28T00:55:46.364Z,9.93
2022-08-28T00:58:13.112Z,15.13
2022-08-28T01:00:40.524Z,11.25
2022-08-28T01:03:08.365Z,14.40
2022-08-28T01:05:36.384Z,16.00
2022-08-28T01:08:04.237Z,14.40
2022-08-28T01:10:34.113Z,12.65
2022-08-28T01:13:01.777Z,10.48
2022-08-28T01:15:32.979Z,11.38
2022-08-28T01:18:07.831Z,13.07
2022-08-28T01:20:38.307Z,8.55
2022-08-28T01:23:28.625Z,13.18
2022-08-28T01:25:54.973Z,10.07
2022-08-28T01:28:21.433Z,11.75
2022-08-28T01:30:48.871Z,11.18
2022-08-28T01:33:15.572Z,8.15
2022-08-28T01:35:46.196Z,9.30
2022-08-28T01:38:21.911Z,16.33
2022-08-28T01:40:54.509Z,8.27
2022-08-28T01:43:25.511Z,9.20
2022-08-28T01:45:56.912Z,10.07
2022-08-28T01:50:50.527Z,11.63
2022-08-28T01:53:19.057Z,11.13
2022-08-28T01:55:45.481Z,13.20
2022-08-28T01:58:12.868Z,10.05
2022-08-28T02:00:39.717Z,11.90
2022-08-28T02:03:06.553Z,12.82
2022-08-28T02:05:33.970Z,12.10
2022-08-28T02:08:04.976Z,7.70
2022-08-28T02:10:39.217Z,10.90
2022-08-28T02:13:06.703Z,8.95
2022-08-28T02:15:35.985Z,12.23
2022-08-28T02:18:02.705Z,6.28
2022-08-28T02:20:29.700Z,9.27
2022-08-28T02:22:57.773Z,11.35
2022-08-28T02:25:24.347Z,14.27
2022-08-28T02:27:50.505Z,9.25
2022-08-28T02:30:18.041Z,13.38
2022-08-28T02:32:46.434Z,12.90
2022-08-28T02:35:15.189Z,14.68
2022-08-28T02:37:42.354Z,9.57
2022-08-28T02:40:10.090Z,16.52
2022-08-28T02:42:36.786Z,11.82
2022-08-28T02:45:03.681Z,11.10
2022-08-28T02:47:29.916Z,6.50
2022-08-28T02:49:56.202Z,12.63
2022-08-28T02:52:24.049Z,6.07
2022-08-28T02:54:50.761Z,10.80
2022-08-28T02:57:17.248Z,8.38
2022-08-28T02:59:43.446Z,11.80
2022-08-28T03:02:09.789Z,16.58
2022-08-28T03:04:37.928Z,12.95
2022-08-28T03:07:06.751Z,8.93
2022-08-28T03:09:33.076Z,11.30
2022-08-28T03:11:59.199Z,8.10
2022-08-28T03:14:25.822Z,11.68
2022-08-28T03:16:52.318Z,10.98
2022-08-28T03:19:18.630Z,6.47
2022-08-28T03:21:44.752Z,11.23
2022-08-28T03:24:11.078Z,9.55
2022-08-28T03:26:41.464Z,13.73
2022-08-28T03:29:07.545Z,10.98
2022-08-28T03:31:35.374Z,7.85
2022-08-28T03:34:01.840Z,11.75
2022-08-28T03:36:30.413Z,10.05
2022-08-28T03:38:58.992Z,8.02
2022-08-28T03:41:28.617Z,8.80
2022-08-28T03:43:59.974Z,11.20
2022-08-28T03:46:27.684Z,10.80
2022-08-28T03:48:56.101Z,7.20
2022-08-28T03:51:29.701Z,12.40
2022-08-28T03:53:58.531Z,7.72
2022-08-28T03:56:26.829Z,9.75
2022-08-28T03:58:56.769Z,8.27
2022-08-28T04:01:23.441Z,9.63
2022-08-28T04:03:50.326Z,7.70
2022-08-28T04:06:16.784Z,12.95
2022-08-28T04:08:42.960Z,8.85
2022-08-28T04:11:09.469Z,8.60
2022-08-28T04:13:36.026Z,12.50
2022-08-28T04:16:11.728Z,11.10
2022-08-28T04:18:40.127Z,8.02
2022-08-28T04:21:16.238Z,14.18
2022-08-28T04:23:43.514Z,5.97
2022-08-28T04:26:16.029Z,13.70
2022-08-28T04:28:43.219Z,8.10
2022-08-28T04:31:09.532Z,8.20
2022-08-28T04:33:36.709Z,6.65
2022-08-28T04:36:05.864Z,6.88
2022-08-28T04:38:32.297Z,9.25
2022-08-28T04:40:58.939Z,8.68
2022-08-28T04:43:25.280Z,10.57
2022-08-28T04:45:51.732Z,9.77
2022-08-28T04:48:18.656Z,8.77
2022-08-28T04:50:47.282Z,9.60
2022-08-28T04:53:16.646Z,7.05
2022-08-28T04:55:54.993Z,10.27
2022-08-28T04:58:23.711Z,7.35
2022-08-28T05:00:51.807Z,6.75
2022-08-28T05:03:18.281Z,8.98
2022-08-28T05:05:50.173Z,8.25
2022-08-28T05:08:18.105Z,8.93
2022-08-28T05:10:46.839Z,8.85
2022-08-28T05:13:14.936Z,6.95
2022-08-28T05:15:43.827Z,9.80
2022-08-28T05:18:12.879Z,11.45
2022-08-28T05:20:41.291Z,6.65
2022-08-28T05:23:08.761Z,7.28
2022-08-28T05:25:37.010Z,7.10
2022-08-28T05:28:05.357Z,8.38
2022-08-28T05:30:33.046Z,6.25
2022-08-28T05:33:00.601Z,6.60
2022-08-28T05:35:27.842Z,6.38
2022-08-28T05:37:54.295Z,10.35
2022-08-28T05:40:22.016Z,7.55
2022-08-28T05:42:49.720Z,7.88
2022-08-28T05:45:17.256Z,7.60
2022-08-28T05:47:44.736Z,8.80
2022-08-28T05:50:13.112Z,8.43
2022-08-28T05:52:40.722Z,6.53
2022-08-28T05:55:10.120Z,6.97
2022-08-28T05:57:36.233Z,6.45
2022-08-28T06:00:04.796Z,5.90
2022-08-28T06:02:31.201Z,7.18
2022-08-28T06:04:57.534Z,6.90
2022-08-28T06:07:24.013Z,4.75
2022-08-28T06:09:50.252Z,8.75
2022-08-28T06:12:17.441Z,6.00
2022-08-28T06:14:44.962Z,6.88
2022-08-28T06:17:11.131Z,7.05
2022-08-28T06:19:41.284Z,5.70
2022-08-28T06:22:08.977Z,5.80
2022-08-28T06:24:37.985Z,5.65
2022-08-28T06:27:04.701Z,9.18
2022-08-28T06:29:31.822Z,5.82
2022-08-28T06:32:01.723Z,6.35
2022-08-28T06:34:28.465Z,5.32
2022-08-28T06:36:54.862Z,10.88
2022-08-28T06:39:22.267Z,4.63
2022-08-28T06:41:48.495Z,7.07
2022-08-28T06:44:20.155Z,7.85
2022-08-28T06:46:48.411Z,8.60
2022-08-28T06:49:14.660Z,8.80
2022-08-28T06:51:42.213Z,5.85
2022-08-28T06:54:10.168Z,8.90
2022-08-28T06:56:37.666Z,5.93
2022-08-28T06:59:04.846Z,8.15
2022-08-28T07:01:37.709Z,7.47
2022-08-28T07:04:08.230Z,7.05
2022-08-28T07:06:38.038Z,10.03
2022-08-28T07:09:06.833Z,12.55
2022-08-28T07:11:34.991Z,8.90
2022-08-28T07:14:02.612Z,10.80
2022-08-28T07:16:32.410Z,12.75
2022-08-28T07:18:59.307Z,13.55
2022-08-28T07:21:25.941Z,10.77
2022-08-28T07:23:52.854Z,8.35
2022-08-28T07:26:22.897Z,8.32
2022-08-28T07:28:51.190Z,9.82
2022-08-28T07:31:22.183Z,11.98
2022-08-28T07:33:54.223Z,6.72
2022-08-28T07:36:28.930Z,9.52
2022-08-28T07:38:58.747Z,8.55
2022-08-28T07:41:29.685Z,9.80
2022-08-28T07:44:14.836Z,5.38
2022-08-28T07:46:42.587Z,8.05
2022-08-28T07:49:09.543Z,12.70
2022-08-28T07:51:36.258Z,7.32
2022-08-28T07:54:04.152Z,7.22
2022-08-28T07:56:31.133Z,4.85
2022-08-28T07:58:59.114Z,6.22
2022-08-28T08:01:26.943Z,11.90
2022-08-28T08:03:55.952Z,5.80
2022-08-28T08:06:34.178Z,6.72
2022-08-28T08:09:01.514Z,4.70
2022-08-28T08:11:27.709Z,5.53
2022-08-28T08:14:03.507Z,8.45
2022-08-28T08:16:35.008Z,5.65
2022-08-28T08:19:02.256Z,9.93
2022-08-28T08:21:30.474Z,6.22
2022-08-28T08:23:57.506Z,6.32
2022-08-28T08:26:25.636Z,6.97
2022-08-28T08:28:51.957Z,6.63
2022-08-28T08:31:31.750Z,7.18
2022-08-28T08:34:01.987Z,4.55
2022-08-28T08:36:30.191Z,5.97
2022-08-28T08:38:59.848Z,9.45
2022-08-28T08:41:39.131Z,3.05
2022-08-28T08:44:28.526Z,7.20
2022-08-28T08:47:04.952Z,4.35
2022-08-28T08:49:38.058Z,4.32
2022-08-28T08:52:28.531Z,3.83
2022-08-28T08:55:15.084Z,7.95
2022-08-28T08:57:42.392Z,5.63
2022-08-28T09:00:15.733Z,9.90
2022-08-28T09:02:49.008Z,2.95
2022-08-28T09:05:26.412Z,5.10
2022-08-28T09:07:56.630Z,4.22
2022-08-28T09:10:32.973Z,5.57
2022-08-28T09:13:23.650Z,5.50
2022-08-28T09:15:51.185Z,3.45
2022-08-28T09:18:25.353Z,6.80
2022-08-28T09:20:54.497Z,3.28
2022-08-28T09:23:30.240Z,7.20
2022-08-28T09:26:01.812Z,5.22
2022-08-28T09:28:36.749Z,6.88
2022-08-28T09:31:09.527Z,6.03
2022-08-28T09:33:47.960Z,2.33
2022-08-28T09:36:26.346Z,3.47
2022-08-28T09:39:16.375Z,4.45
2022-08-28T09:42:31.773Z,5.18
2022-08-28T09:45:20.327Z,6.78
2022-08-28T09:47:50.042Z,4.28
2022-08-28T09:50:27.987Z,6.30
2022-08-28T09:52:56.714Z,4.85
2022-08-28T09:55:25.900Z,5.32
2022-08-28T09:57:53.902Z,5.95
2022-08-28T10:00:22.679Z,4.28
2022-08-28T10:03:14.939Z,5.45
2022-08-28T10:05:51.719Z,5.30
2022-08-28T10:08:47.343Z,4.07
2022-08-28T10:11:31.924Z,3.38
2022-08-28T10:14:22.977Z,4.47
2022-08-28T10:16:58.990Z,5.05
2022-08-28T10:19:28.473Z,3.17
2022-08-28T10:22:36.098Z,5.18
2022-08-28T10:25:40.939Z,6.32
2022-08-28T10:28:17.109Z,5.03
2022-08-28T10:31:25.160Z,3.67
2022-08-28T10:34:15.857Z,3.55
2022-08-28T10:39:33.165Z,3.88
2022-08-28T10:42:04.428Z,3.25
2022-08-28T10:44:36.933Z,3.05
2022-08-28T10:47:06.037Z,6.30
2022-08-28T10:49:37.420Z,2.67
2022-08-28T10:52:25.285Z,2.63
2022-08-28T10:55:05.149Z,3.33
2022-08-28T10:57:40.826Z,2.80
2022-08-28T11:00:15.019Z,4.50
2022-08-28T11:02:46.615Z,1.83
2022-08-28T11:05:13.676Z,3.42
2022-08-28T11:07:59.502Z,8.65
2022-08-28T11:10:31.570Z,2.83
2022-08-28T11:12:59.087Z,4.95
2022-08-28T11:15:36.346Z,1.50
2022-08-28T11:18:15.366Z,4.00
2022-08-28T11:21:09.273Z,3.30
2022-08-28T11:23:45.206Z,2.97
2022-08-28T11:26:22.891Z,2.10
2022-08-28T11:28:49.266Z,5.82
2022-08-28T11:31:18.162Z,4.38
2022-08-28T11:33:58.870Z,2.80
2022-08-28T11:36:27.456Z,7.50
2022-08-28T11:38:53.569Z,2.83
2022-08-28T11:41:23.624Z,6.97
2022-08-28T11:43:54.227Z,2.85
2022-08-28T11:46:34.663Z,8.50
2022-08-28T11:49:20.944Z,3.03
2022-08-28T11:51:49.858Z,5.45
2022-08-28T11:54:35.085Z,2.20
2022-08-28T11:57:14.217Z,6.78
2022-08-28T11:59:52.635Z,4.93
2022-08-28T12:02:38.480Z,3.35
2022-08-28T12:05:17.177Z,3.08
2022-08-28T12:07:49.479Z,2.70
2022-08-28T12:10:27.537Z,5.53
2022-08-28T12:13:07.797Z,5.03
2022-08-28T12:15:33.973Z,2.80
2022-08-28T12:23:47.165Z,2.03
2022-08-28T12:26:21.941Z,2.07
2022-08-28T12:29:10.057Z,3.20
2022-08-28T12:31:57.683Z,4.03
2022-08-28T12:34:29.780Z,3.22
2022-08-28T12:37:01.459Z,2.03
2022-08-28T12:39:30.113Z,2.63
2022-08-28T12:41:58.423Z,3.75
2022-08-28T12:44:30.570Z,3.08
2022-08-28T12:46:57.417Z,1.35
2022-08-28T12:49:35.388Z,1.67
2022-08-28T12:52:12.385Z,2.67
2022-08-28T12:54:47.225Z,3.28
2022-08-28T12:57:17.132Z,2.30
2022-08-28T13:02:30.808Z,2.83
2022-08-28T13:05:06.531Z,2.65
2022-08-28T13:07:40.550Z,2.33
2022-08-28T13:10:26.024Z,1.48
2022-08-28T13:13:06.936Z,4.70
2022-08-28T13:15:45.233Z,2.95
2022-08-28T13:18:37.331Z,2.97
2022-08-28T13:21:32.603Z,1.40
2022-08-28T13:24:21.642Z,1.98
2022-08-28T13:27:00.291Z,1.70
2022-08-28T13:29:27.026Z,2.28
2022-08-28T13:32:02.861Z,1.00
2022-08-28T13:34:32.198Z,2.35
2022-08-28T13:37:14.750Z,4.03
2022-08-28T13:39:47.292Z,3.85
2022-08-28T13:42:16.223Z,5.80
2022-08-28T13:44:53.193Z,2.75
2022-08-28T13:47:19.981Z,2.15
2022-08-28T13:49:46.409Z,2.22
2022-08-28T13:52:13.207Z,6.07
2022-08-28T13:54:43.531Z,3.55
2022-08-28T13:57:12.740Z,2.70
2022-08-28T13:59:39.074Z,3.47
2022-08-28T14:02:26.852Z,3.83
2022-08-28T14:04:53.083Z,4.47
2022-08-28T14:13:24.676Z,2.63
2022-08-28T14:16:00.430Z,3.20
2022-08-28T14:18:27.429Z,4.57
2022-08-28T14:20:53.559Z,3.92
2022-08-28T14:23:19.812Z,4.45
2022-08-28T14:25:47.206Z,5.13
2022-08-28T14:28:16.775Z,2.65
2022-08-28T14:30:44.567Z,3.73
2022-08-28T14:33:11.010Z,2.80
2022-08-28T14:35:40.306Z,3.05
2022-08-28T14:38:09.049Z,3.60
2022-08-28T14:40:37.954Z,4.60
2022-08-28T14:43:09.601Z,4.95
2022-08-28T14:45:48.313Z,2.10
2022-08-28T14:48:16.122Z,4.82
2022-08-28T14:50:44.993Z,5.05
2022-08-28T14:53:13.145Z,3.65
2022-08-28T14:55:45.147Z,8.13
2022-08-28T14:58:12.469Z,44.15
2022-08-28T15:00:43.145Z,15.32
2022-08-28T15:03:10.121Z,7.63
2022-08-28T15:05:36.745Z,10.48
2022-08-28T15:08:09.318Z,6.22
2022-08-28T15:10:38.682Z,5.07
2022-08-28T15:13:07.815Z,5.95
2022-08-28T15:15:38.666Z,4.65
2022-08-28T15:18:06.943Z,2.75
2022-08-28T15:20:38.321Z,3.47
2022-08-28T15:23:04.683Z,1.88
2022-08-28T15:25:31.015Z,3.28
2022-08-28T15:27:57.850Z,2.17
2022-08-28T15:30:24.102Z,3.47
2022-08-28T15:32:50.641Z,3.85
2022-08-28T15:35:16.944Z,4.32
2022-08-28T15:37:43.378Z,2.80
2022-08-28T15:40:28.920Z,5.65
2022-08-28T15:42:55.234Z,3.05
2022-08-28T15:45:22.067Z,2.22
2022-08-28T15:47:48.217Z,6.82
2022-08-28T15:50:15.950Z,6.22
2022-08-28T15:52:46.706Z,4.30
2022-08-28T15:55:12.893Z,2.97
2022-08-28T15:57:38.974Z,3.33
2022-08-28T16:00:10.211Z,3.22
2022-08-28T16:02:37.123Z,3.53
2022-08-28T16:05:03.716Z,1.80
2022-08-28T16:07:30.342Z,4.35
2022-08-28T16:09:56.578Z,5.60
2022-08-28T16:12:22.876Z,4.45
2022-08-28T16:14:49.664Z,3.75
2022-08-28T16:17:17.202Z,2.95
2022-08-28T16:19:47.181Z,3.50
2022-08-28T16:22:16.995Z,3.22
2022-08-28T16:24:44.958Z,3.08
2022-08-28T16:27:15.481Z,5.80
2022-08-28T16:29:43.719Z,2.15
2022-08-28T16:32:11.655Z,7.00
2022-08-28T16:34:39.155Z,4.20
2022-08-28T16:37:06.015Z,1.70
2022-08-28T16:39:36.647Z,6.18
2022-08-28T16:42:03.232Z,3.92
2022-08-28T16:44:30.417Z,6.45
2022-08-28T16:46:56.669Z,4.80
2022-08-28T16:49:23.437Z,3.55
2022-08-28T16:51:50.210Z,2.85
2022-08-28T16:54:22.093Z,5.75
2022-08-28T16:56:51.148Z,4.28
2022-08-28T16:59:24.223Z,2.13
2022-08-28T17:01:54.421Z,4.10
2022-08-28T17:04:21.521Z,1.52
2022-08-28T17:06:48.081Z,3.78
2022-08-28T17:09:14.301Z,2.63
2022-08-28T17:11:40.753Z,4.72
2022-08-28T17:14:08.663Z,2.20
2022-08-28T17:16:34.918Z,3.17
2022-08-28T17:19:01.942Z,3.40
2022-08-28T17:21:46.865Z,3.83
2022-08-28T17:24:14.705Z,4.85
2022-08-28T17:26:41.918Z,2.67
2022-08-28T17:29:08.671Z,3.95
2022-08-28T17:31:35.949Z,2.20
2022-08-28T17:34:02.188Z,2.22
2022-08-28T17:36:33.010Z,4.40
2022-08-28T17:39:02.632Z,3.05
2022-08-28T17:41:28.866Z,2.45
2022-08-28T17:43:55.170Z,2.28
2022-08-28T17:46:22.524Z,3.42
2022-08-28T17:48:55.603Z,2.40
2022-08-28T17:51:42.122Z,2.67
2022-08-28T17:54:18.479Z,2.58
2022-08-28T17:56:45.642Z,3.47
2022-08-28T17:59:12.281Z,1.75
2022-08-28T18:01:39.247Z,4.35
2022-08-28T18:04:05.806Z,5.75
2022-08-28T18:06:33.147Z,5.75
2022-08-28T18:08:59.750Z,2.72
2022-08-28T18:11:26.663Z,3.33
2022-08-28T18:13:53.017Z,7.28
2022-08-28T18:16:19.403Z,4.50
2022-08-28T18:18:46.066Z,3.92
2022-08-28T18:21:13.264Z,3.95
2022-08-28T18:23:39.919Z,2.72
2022-08-28T18:26:07.367Z,5.15
2022-08-28T18:28:34.165Z,3.42
2022-08-28T18:31:02.364Z,6.53
2022-08-28T18:33:32.102Z,5.05
2022-08-28T18:36:02.811Z,5.25
2022-08-28T18:38:34.478Z,2.45
2022-08-28T18:41:03.545Z,4.28
2022-08-28T18:43:30.044Z,3.47
2022-08-28T18:45:58.799Z,2.38
2022-08-28T18:48:26.075Z,3.75
2022-08-28T18:50:52.228Z,3.42
2022-08-28T18:53:20.778Z,4.60
2022-08-28T18:55:48.131Z,3.70
2022-08-28T18:58:17.456Z,3.63
2022-08-28T19:00:46.045Z,4.28
2022-08-28T19:03:12.502Z,4.45
2022-08-28T19:05:38.981Z,4.60
2022-08-28T19:08:05.741Z,4.90
2022-08-28T19:10:34.772Z,3.38
2022-08-28T19:13:02.117Z,4.38
2022-08-28T19:15:29.884Z,5.60
2022-08-28T19:17:57.237Z,5.18
2022-08-28T19:20:23.867Z,4.85
2022-08-28T19:22:50.409Z,6.95
2022-08-28T19:25:28.457Z,5.65
2022-08-28T19:28:00.162Z,3.33
2022-08-28T19:30:28.846Z,10.30
2022-08-28T19:32:55.244Z,7.28
2022-08-28T19:35:24.187Z,11.05
2022-08-28T19:37:51.948Z,5.43
2022-08-28T19:40:18.502Z,5.80
2022-08-28T19:42:45.119Z,4.72
2022-08-28T19:45:14.437Z,5.10
2022-08-28T19:47:41.023Z,4.00
2022-08-28T19:50:09.354Z,5.88
2022-08-28T19:52:35.930Z,5.13
2022-08-28T19:55:04.850Z,9.32
2022-08-28T19:57:30.983Z,7.88
2022-08-28T19:59:59.203Z,2.50
2022-08-28T20:02:25.974Z,7.25
2022-08-28T20:04:53.638Z,5.78
2022-08-28T20:07:19.752Z,2.55
2022-08-28T20:09:46.527Z,6.63
2022-08-28T20:12:14.962Z,8.30
2022-08-28T20:14:42.221Z,2.97
2022-08-28T20:17:08.616Z,3.25
2022-08-28T20:19:35.261Z,5.75
2022-08-28T20:22:02.567Z,3.72
2022-08-28T20:24:32.873Z,10.00
2022-08-28T20:26:59.009Z,6.38
2022-08-28T20:29:25.536Z,6.07
2022-08-28T20:31:52.357Z,4.28
2022-08-28T20:34:19.937Z,7.32
2022-08-28T20:36:47.511Z,4.00
2022-08-28T20:39:14.883Z,6.20
2022-08-28T20:41:42.214Z,4.45
2022-08-28T20:44:11.958Z,11.45
2022-08-28T20:46:41.817Z,6.70
2022-08-28T20:49:09.751Z,6.10
2022-08-28T20:51:54.628Z,5.82
2022-08-28T20:54:27.581Z,5.93
2022-08-28T20:56:56.526Z,3.60
2022-08-28T20:59:23.214Z,10.30
2022-08-28T21:01:53.282Z,8.82
2022-08-28T21:04:19.875Z,6.40
2022-08-28T21:06:47.411Z,7.25
2022-08-28T21:09:14.353Z,5.65
2022-08-28T21:11:41.327Z,6.32
2022-08-28T21:14:08.261Z,15.00
2022-08-28T21:16:35.160Z,3.78
2022-08-28T21:19:16.962Z,6.50
2022-08-28T21:21:44.624Z,5.95
2022-08-28T21:24:14.210Z,7.97
2022-08-28T21:26:50.086Z,8.02
2022-08-28T21:29:20.093Z,12.05
2022-08-28T21:31:49.271Z,10.05
2022-08-28T21:34:16.705Z,9.52
2022-08-28T21:36:50.131Z,8.25
2022-08-28T21:39:19.902Z,9.98
2022-08-28T21:41:46.807Z,7.10
2022-08-28T21:44:13.109Z,5.80
2022-08-28T21:46:40.425Z,6.15
2022-08-28T21:49:06.922Z,8.52
2022-08-28T21:51:32.995Z,5.78
2022-08-28T21:53:59.126Z,7.22
2022-08-28T21:56:27.096Z,6.13
2022-08-28T21:58:54.622Z,7.28
2022-08-28T22:01:23.796Z,4.63
2022-08-28T22:03:50.660Z,8.70
2022-08-28T22:06:19.052Z,7.93
2022-08-28T22:08:46.625Z,4.72
2022-08-28T22:11:13.673Z,9.85
2022-08-28T22:13:42.367Z,5.35
2022-08-28T22:16:09.750Z,7.07
2022-08-28T22:18:36.394Z,12.63
2022-08-28T22:21:22.572Z,4.85
2022-08-28T22:23:48.895Z,8.43
2022-08-28T22:26:18.047Z,2.90
2022-08-28T22:28:44.799Z,5.30
2022-08-28T22:31:11.321Z,6.53
2022-08-28T22:33:38.667Z,4.40
2022-08-28T22:36:05.112Z,5.32
2022-08-28T22:38:31.685Z,7.18
2022-08-28T22:41:01.481Z,5.55
2022-08-28T22:43:27.969Z,5.10
2022-08-28T22:45:57.808Z,6.38
2022-08-28T22:48:24.306Z,15.48
2022-08-28T22:50:50.599Z,5.57
2022-08-28T22:53:17.371Z,5.53
2022-08-28T22:55:44.381Z,5.30
2022-08-28T22:58:10.910Z,6.45
2022-08-28T23:00:39.740Z,4.20
2022-08-28T23:03:06.094Z,8.82
2022-08-28T23:05:33.164Z,7.13
2022-08-28T23:07:59.328Z,5.60
2022-08-28T23:10:48.158Z,7.82
2022-08-28T23:13:14.318Z,5.30
2022-08-28T23:15:41.658Z,4.40
2022-08-28T23:18:07.873Z,5.45
2022-08-28T23:20:34.596Z,6.05
2022-08-28T23:23:01.895Z,8.90
2022-08-28T23:25:28.022Z,6.68
2022-08-28T23:27:55.251Z,4.47
2022-08-28T23:30:22.299Z,7.75
2022-08-28T23:32:49.120Z,6.70
2022-08-28T23:35:16.940Z,3.85
2022-08-28T23:37:48.037Z,5.38
2022-08-28T23:40:19.460Z,6.07
2022-08-28T23:42:46.772Z,3.22
2022-08-28T23:45:16.684Z,5.30
2022-08-28T23:47:45.876Z,7.20
2022-08-28T23:50:18.620Z,7.70
2022-08-28T23:52:45.162Z,3.33
2022-08-28T23:55:13.597Z,3.10
2022-08-28T23:57:40.141Z,3.97
